Terminal Aerodrome Forecast
Issued by NWS St Louis, MO

Home | Current Version | Previous Version | Text Only | Print | Product List | Glossary On
Versions: 1 2 3 4 5 6 7 8 9 10 11 12 13 14 15 16 17 18 19 20
556
FTUS43 KLSX 201521 AAA
TAFSTL
TAF AMD
KSTL 201521Z 2015/2118 25012G20KT P6SM VCSH SCT030 BKN080
      TEMPO 2015/2016 -SHRA BKN030
     FM201700 27012G22KT P6SM -SHRA VCTS OVC050CB
     FM202100 31012G22KT P6SM BKN070
     FM210000 32010KT P6SM SCT110
     FM210500 36008KT P6SM FEW200=

USA.gov is the U.S. government's official web portal to all federal, state and local government web resources and services.